sensor_id;sensor_type;location;lat;lon;timestamp;P1;durP1;ratioP1;P2;durP2;ratioP2
36585;SDS011;22591;48.314;11.562;2024-01-07T00:02:13;26.23;;;20.67;;
36585;SDS011;22591;48.314;11.562;2024-01-07T00:04:39;25.50;;;21.10;;
36585;SDS011;22591;48.314;11.562;2024-01-07T00:07:05;25.33;;;21.13;;
36585;SDS011;22591;48.314;11.562;2024-01-07T00:09:31;25.20;;;20.10;;
36585;SDS011;22591;48.314;11.562;2024-01-07T00:11:57;24.30;;;20.00;;
36585;SDS011;22591;48.314;11.562;2024-01-07T00:14:22;23.45;;;20.90;;
36585;SDS011;22591;48.314;11.562;2024-01-07T00:16:48;25.75;;;22.20;;
36585;SDS011;22591;48.314;11.562;2024-01-07T00:19:13;24.05;;;21.05;;
36585;SDS011;22591;48.314;11.562;2024-01-07T00:21:39;22.85;;;19.65;;
36585;SDS011;22591;48.314;11.562;2024-01-07T00:24:04;27.45;;;22.40;;
36585;SDS011;22591;48.314;11.562;2024-01-07T00:26:30;28.30;;;22.98;;
36585;SDS011;22591;48.314;11.562;2024-01-07T00:28:55;26.20;;;20.55;;
36585;SDS011;22591;48.314;11.562;2024-01-07T00:31:21;35.30;;;24.02;;
36585;SDS011;22591;48.314;11.562;2024-01-07T00:33:47;30.08;;;23.27;;
36585;SDS011;22591;48.314;11.562;2024-01-07T00:36:12;30.73;;;23.58;;
36585;SDS011;22591;48.314;11.562;2024-01-07T00:38:38;26.05;;;21.33;;
36585;SDS011;22591;48.314;11.562;2024-01-07T00:41:03;29.02;;;23.30;;
36585;SDS011;22591;48.314;11.562;2024-01-07T00:43:29;32.22;;;23.98;;
36585;SDS011;22591;48.314;11.562;2024-01-07T00:45:55;31.92;;;24.77;;
36585;SDS011;22591;48.314;11.562;2024-01-07T00:48:20;32.63;;;25.48;;
36585;SDS011;22591;48.314;11.562;2024-01-07T00:50:46;29.58;;;23.23;;
36585;SDS011;22591;48.314;11.562;2024-01-07T00:53:11;30.40;;;23.55;;
36585;SDS011;22591;48.314;11.562;2024-01-07T00:55:37;30.92;;;23.75;;
36585;SDS011;22591;48.314;11.562;2024-01-07T00:58:03;30.42;;;24.35;;
36585;SDS011;22591;48.314;11.562;2024-01-07T01:00:28;40.42;;;26.67;;
36585;SDS011;22591;48.314;11.562;2024-01-07T01:02:54;34.25;;;25.75;;
36585;SDS011;22591;48.314;11.562;2024-01-07T01:05:20;35.83;;;25.67;;
36585;SDS011;22591;48.314;11.562;2024-01-07T01:07:46;34.00;;;25.10;;
36585;SDS011;22591;48.314;11.562;2024-01-07T01:10:11;33.25;;;25.88;;
36585;SDS011;22591;48.314;11.562;2024-01-07T01:12:38;34.47;;;26.13;;
36585;SDS011;22591;48.314;11.562;2024-01-07T01:15:03;33.65;;;24.13;;
36585;SDS011;22591;48.314;11.562;2024-01-07T01:17:30;36.97;;;24.98;;
36585;SDS011;22591;48.314;11.562;2024-01-07T01:19:55;33.75;;;25.17;;
36585;SDS011;22591;48.314;11.562;2024-01-07T01:22:21;38.90;;;27.13;;
36585;SDS011;22591;48.314;11.562;2024-01-07T01:24:46;38.38;;;26.45;;
36585;SDS011;22591;48.314;11.562;2024-01-07T01:27:13;37.85;;;27.42;;
36585;SDS011;22591;48.314;11.562;2024-01-07T01:29:40;34.33;;;25.90;;
36585;SDS011;22591;48.314;11.562;2024-01-07T01:32:06;37.67;;;25.35;;
36585;SDS011;22591;48.314;11.562;2024-01-07T01:34:31;33.17;;;24.40;;
36585;SDS011;22591;48.314;11.562;2024-01-07T01:36:57;34.92;;;26.38;;
36585;SDS011;22591;48.314;11.562;2024-01-07T01:39:22;33.33;;;25.13;;
36585;SDS011;22591;48.314;11.562;2024-01-07T01:41:48;34.10;;;26.42;;
36585;SDS011;22591;48.314;11.562;2024-01-07T01:44:14;40.03;;;28.23;;
36585;SDS011;22591;48.314;11.562;2024-01-07T01:46:40;45.03;;;27.42;;
36585;SDS011;22591;48.314;11.562;2024-01-07T01:49:06;40.70;;;25.73;;
36585;SDS011;22591;48.314;11.562;2024-01-07T01:51:33;39.17;;;26.80;;
36585;SDS011;22591;48.314;11.562;2024-01-07T01:53:59;37.35;;;25.85;;
36585;SDS011;22591;48.314;11.562;2024-01-07T01:56:26;40.28;;;26.67;;
36585;SDS011;22591;48.314;11.562;2024-01-07T01:58:53;49.05;;;29.52;;
36585;SDS011;22591;48.314;11.562;2024-01-07T02:01:19;46.72;;;29.45;;
36585;SDS011;22591;48.314;11.562;2024-01-07T02:03:44;42.17;;;27.60;;
36585;SDS011;22591;48.314;11.562;2024-01-07T02:06:11;49.30;;;29.90;;
36585;SDS011;22591;48.314;11.562;2024-01-07T02:08:37;43.78;;;26.52;;
36585;SDS011;22591;48.314;11.562;2024-01-07T02:11:16;40.50;;;27.13;;
36585;SDS011;22591;48.314;11.562;2024-01-07T02:13:43;42.95;;;28.00;;
36585;SDS011;22591;48.314;11.562;2024-01-07T02:16:08;42.00;;;27.25;;
36585;SDS011;22591;48.314;11.562;2024-01-07T02:18:34;40.78;;;25.52;;
36585;SDS011;22591;48.314;11.562;2024-01-07T02:21:00;41.13;;;26.63;;
36585;SDS011;22591;48.314;11.562;2024-01-07T02:23:25;43.10;;;27.77;;
36585;SDS011;22591;48.314;11.562;2024-01-07T02:25:51;39.22;;;26.30;;
36585;SDS011;22591;48.314;11.562;2024-01-07T02:28:16;37.03;;;26.20;;
36585;SDS011;22591;48.314;11.562;2024-01-07T02:30:42;38.30;;;25.02;;
36585;SDS011;22591;48.314;11.562;2024-01-07T02:33:07;38.25;;;25.17;;
36585;SDS011;22591;48.314;11.562;2024-01-07T02:35:33;29.40;;;22.48;;
36585;SDS011;22591;48.314;11.562;2024-01-07T02:37:58;33.60;;;23.27;;
36585;SDS011;22591;48.314;11.562;2024-01-07T02:40:24;29.02;;;22.38;;
36585;SDS011;22591;48.314;11.562;2024-01-07T02:42:49;26.20;;;20.67;;
36585;SDS011;22591;48.314;11.562;2024-01-07T02:45:15;23.27;;;19.95;;
36585;SDS011;22591;48.314;11.562;2024-01-07T02:47:41;29.30;;;21.63;;
36585;SDS011;22591;48.314;11.562;2024-01-07T02:50:06;26.48;;;21.35;;
36585;SDS011;22591;48.314;11.562;2024-01-07T02:52:32;24.88;;;19.40;;
36585;SDS011;22591;48.314;11.562;2024-01-07T02:54:58;25.13;;;19.75;;
36585;SDS011;22591;48.314;11.562;2024-01-07T02:57:26;30.95;;;27.63;;
36585;SDS011;22591;48.314;11.562;2024-01-07T02:59:52;22.65;;;18.55;;
36585;SDS011;22591;48.314;11.562;2024-01-07T03:02:17;24.25;;;18.38;;
36585;SDS011;22591;48.314;11.562;2024-01-07T03:04:43;17.02;;;14.63;;
36585;SDS011;22591;48.314;11.562;2024-01-07T03:07:08;22.20;;;19.05;;
36585;SDS011;22591;48.314;11.562;2024-01-07T03:09:34;21.20;;;18.42;;
36585;SDS011;22591;48.314;11.562;2024-01-07T03:11:59;23.50;;;17.83;;
36585;SDS011;22591;48.314;11.562;2024-01-07T03:14:25;21.80;;;18.20;;
36585;SDS011;22591;48.314;11.562;2024-01-07T03:16:51;23.55;;;19.83;;
36585;SDS011;22591;48.314;11.562;2024-01-07T03:19:17;21.73;;;18.92;;
36585;SDS011;22591;48.314;11.562;2024-01-07T03:21:43;27.20;;;21.27;;
36585;SDS011;22591;48.314;11.562;2024-01-07T03:24:08;22.85;;;19.17;;
36585;SDS011;22591;48.314;11.562;2024-01-07T03:26:34;20.15;;;18.05;;
36585;SDS011;22591;48.314;11.562;2024-01-07T03:28:59;21.15;;;18.17;;
36585;SDS011;22591;48.314;11.562;2024-01-07T03:31:26;23.83;;;19.80;;
36585;SDS011;22591;48.314;11.562;2024-01-07T03:33:52;28.75;;;22.23;;
36585;SDS011;22591;48.314;11.562;2024-01-07T03:36:18;21.98;;;19.50;;
36585;SDS011;22591;48.314;11.562;2024-01-07T03:38:44;26.23;;;20.73;;
36585;SDS011;22591;48.314;11.562;2024-01-07T03:41:15;23.70;;;20.08;;
36585;SDS011;22591;48.314;11.562;2024-01-07T03:43:44;27.52;;;21.95;;
36585;SDS011;22591;48.314;11.562;2024-01-07T03:46:13;27.27;;;20.80;;
36585;SDS011;22591;48.314;11.562;2024-01-07T03:48:40;24.98;;;21.65;;
36585;SDS011;22591;48.314;11.562;2024-01-07T03:51:06;26.58;;;20.52;;
36585;SDS011;22591;48.314;11.562;2024-01-07T03:53:32;26.63;;;19.02;;
36585;SDS011;22591;48.314;11.562;2024-01-07T03:55:58;21.40;;;18.95;;
36585;SDS011;22591;48.314;11.562;2024-01-07T03:58:23;25.80;;;20.88;;
36585;SDS011;22591;48.314;11.562;2024-01-07T04:00:49;25.83;;;20.17;;
36585;SDS011;22591;48.314;11.562;2024-01-07T04:03:14;23.45;;;19.55;;
36585;SDS011;22591;48.314;11.562;2024-01-07T04:05:40;22.35;;;18.38;;
36585;SDS011;22591;48.314;11.562;2024-01-07T04:08:05;23.85;;;18.40;;
36585;SDS011;22591;48.314;11.562;2024-01-07T04:10:34;21.83;;;18.20;;
36585;SDS011;22591;48.314;11.562;2024-01-07T04:12:59;23.60;;;18.23;;
36585;SDS011;22591;48.314;11.562;2024-01-07T04:15:25;22.17;;;19.80;;
36585;SDS011;22591;48.314;11.562;2024-01-07T04:17:50;20.17;;;17.98;;
36585;SDS011;22591;48.314;11.562;2024-01-07T04:20:16;25.33;;;18.33;;
36585;SDS011;22591;48.314;11.562;2024-01-07T04:22:41;21.83;;;18.42;;
36585;SDS011;22591;48.314;11.562;2024-01-07T04:25:07;25.75;;;20.42;;
36585;SDS011;22591;48.314;11.562;2024-01-07T04:27:36;23.35;;;17.67;;
36585;SDS011;22591;48.314;11.562;2024-01-07T04:30:04;24.67;;;19.10;;
36585;SDS011;22591;48.314;11.562;2024-01-07T04:32:30;21.88;;;19.13;;
36585;SDS011;22591;48.314;11.562;2024-01-07T04:34:56;22.42;;;19.05;;
36585;SDS011;22591;48.314;11.562;2024-01-07T04:37:22;25.25;;;20.50;;
36585;SDS011;22591;48.314;11.562;2024-01-07T04:39:48;23.45;;;18.42;;
36585;SDS011;22591;48.314;11.562;2024-01-07T04:42:14;25.92;;;20.05;;
36585;SDS011;22591;48.314;11.562;2024-01-07T04:44:40;22.13;;;18.02;;
36585;SDS011;22591;48.314;11.562;2024-01-07T04:47:22;23.88;;;19.58;;
36585;SDS011;22591;48.314;11.562;2024-01-07T04:49:50;18.35;;;16.38;;
36585;SDS011;22591;48.314;11.562;2024-01-07T04:52:16;26.58;;;19.35;;
36585;SDS011;22591;48.314;11.562;2024-01-07T04:54:42;25.35;;;19.23;;
36585;SDS011;22591;48.314;11.562;2024-01-07T04:57:07;25.50;;;19.33;;
36585;SDS011;22591;48.314;11.562;2024-01-07T04:59:33;24.52;;;18.48;;
36585;SDS011;22591;48.314;11.562;2024-01-07T05:01:58;23.52;;;17.55;;
36585;SDS011;22591;48.314;11.562;2024-01-07T05:04:24;21.58;;;18.20;;
36585;SDS011;22591;48.314;11.562;2024-01-07T05:06:49;23.75;;;19.02;;
36585;SDS011;22591;48.314;11.562;2024-01-07T05:09:15;27.40;;;19.27;;
36585;SDS011;22591;48.314;11.562;2024-01-07T05:11:41;26.50;;;21.35;;
36585;SDS011;22591;48.314;11.562;2024-01-07T05:14:06;21.40;;;18.20;;
36585;SDS011;22591;48.314;11.562;2024-01-07T05:16:32;28.02;;;21.65;;
36585;SDS011;22591;48.314;11.562;2024-01-07T05:18:57;25.67;;;19.58;;
36585;SDS011;22591;48.314;11.562;2024-01-07T05:21:23;27.20;;;21.33;;
36585;SDS011;22591;48.314;11.562;2024-01-07T05:23:48;22.65;;;19.90;;
36585;SDS011;22591;48.314;11.562;2024-01-07T05:26:14;26.40;;;21.30;;
36585;SDS011;22591;48.314;11.562;2024-01-07T05:28:40;20.85;;;17.55;;
36585;SDS011;22591;48.314;11.562;2024-01-07T05:31:13;24.23;;;18.70;;
36585;SDS011;22591;48.314;11.562;2024-01-07T05:33:42;17.23;;;15.52;;
36585;SDS011;22591;48.314;11.562;2024-01-07T05:36:08;21.42;;;17.67;;
36585;SDS011;22591;48.314;11.562;2024-01-07T05:38:34;19.98;;;16.88;;
36585;SDS011;22591;48.314;11.562;2024-01-07T05:41:00;18.65;;;16.65;;
36585;SDS011;22591;48.314;11.562;2024-01-07T05:43:25;20.80;;;17.20;;
36585;SDS011;22591;48.314;11.562;2024-01-07T05:45:51;18.90;;;16.38;;
36585;SDS011;22591;48.314;11.562;2024-01-07T05:48:16;20.08;;;16.58;;
36585;SDS011;22591;48.314;11.562;2024-01-07T05:50:42;22.35;;;17.10;;
36585;SDS011;22591;48.314;11.562;2024-01-07T05:53:08;19.67;;;17.58;;
36585;SDS011;22591;48.314;11.562;2024-01-07T05:55:33;20.13;;;17.40;;
36585;SDS011;22591;48.314;11.562;2024-01-07T05:57:59;23.75;;;18.77;;
36585;SDS011;22591;48.314;11.562;2024-01-07T06:00:24;22.25;;;18.20;;
36585;SDS011;22591;48.314;11.562;2024-01-07T06:02:50;24.25;;;19.42;;
36585;SDS011;22591;48.314;11.562;2024-01-07T06:05:15;20.67;;;16.85;;
36585;SDS011;22591;48.314;11.562;2024-01-07T06:07:41;22.98;;;18.17;;
36585;SDS011;22591;48.314;11.562;2024-01-07T06:10:06;22.90;;;18.67;;
36585;SDS011;22591;48.314;11.562;2024-01-07T06:12:32;20.52;;;16.98;;
36585;SDS011;22591;48.314;11.562;2024-01-07T06:14:58;16.85;;;14.88;;
36585;SDS011;22591;48.314;11.562;2024-01-07T06:17:23;20.88;;;18.48;;
36585;SDS011;22591;48.314;11.562;2024-01-07T06:19:49;20.67;;;16.33;;
36585;SDS011;22591;48.314;11.562;2024-01-07T06:22:14;19.38;;;16.48;;
36585;SDS011;22591;48.314;11.562;2024-01-07T06:24:40;21.17;;;18.90;;
36585;SDS011;22591;48.314;11.562;2024-01-07T06:27:05;24.20;;;18.80;;
36585;SDS011;22591;48.314;11.562;2024-01-07T06:29:31;20.10;;;17.00;;
36585;SDS011;22591;48.314;11.562;2024-01-07T06:31:56;21.95;;;18.75;;
36585;SDS011;22591;48.314;11.562;2024-01-07T06:34:22;23.27;;;18.95;;
36585;SDS011;22591;48.314;11.562;2024-01-07T06:36:48;19.27;;;17.10;;
36585;SDS011;22591;48.314;11.562;2024-01-07T06:39:15;23.10;;;20.30;;
36585;SDS011;22591;48.314;11.562;2024-01-07T06:41:40;30.58;;;21.30;;
36585;SDS011;22591;48.314;11.562;2024-01-07T06:44:06;28.83;;;19.85;;
36585;SDS011;22591;48.314;11.562;2024-01-07T06:46:31;20.45;;;16.83;;
36585;SDS011;22591;48.314;11.562;2024-01-07T06:48:59;21.15;;;17.33;;
36585;SDS011;22591;48.314;11.562;2024-01-07T06:51:25;22.40;;;18.20;;
36585;SDS011;22591;48.314;11.562;2024-01-07T06:53:50;20.85;;;17.70;;
36585;SDS011;22591;48.314;11.562;2024-01-07T06:56:16;21.65;;;17.75;;
36585;SDS011;22591;48.314;11.562;2024-01-07T06:58:41;26.42;;;19.90;;
36585;SDS011;22591;48.314;11.562;2024-01-07T07:01:07;23.65;;;17.98;;
36585;SDS011;22591;48.314;11.562;2024-01-07T07:03:32;27.30;;;20.20;;
36585;SDS011;22591;48.314;11.562;2024-01-07T07:05:59;26.92;;;19.55;;
36585;SDS011;22591;48.314;11.562;2024-01-07T07:08:25;26.88;;;19.65;;
36585;SDS011;22591;48.314;11.562;2024-01-07T07:10:51;29.60;;;20.23;;
36585;SDS011;22591;48.314;11.562;2024-01-07T07:13:17;27.55;;;20.30;;
36585;SDS011;22591;48.314;11.562;2024-01-07T07:15:42;23.60;;;18.27;;
36585;SDS011;22591;48.314;11.562;2024-01-07T07:18:08;30.35;;;20.38;;
36585;SDS011;22591;48.314;11.562;2024-01-07T07:20:33;26.35;;;18.85;;
36585;SDS011;22591;48.314;11.562;2024-01-07T07:22:59;21.42;;;17.27;;
36585;SDS011;22591;48.314;11.562;2024-01-07T07:25:24;22.92;;;17.70;;
36585;SDS011;22591;48.314;11.562;2024-01-07T07:27:50;29.45;;;20.00;;
36585;SDS011;22591;48.314;11.562;2024-01-07T07:30:15;26.65;;;19.70;;
36585;SDS011;22591;48.314;11.562;2024-01-07T07:32:41;26.15;;;19.92;;
36585;SDS011;22591;48.314;11.562;2024-01-07T07:35:07;24.00;;;18.15;;
36585;SDS011;22591;48.314;11.562;2024-01-07T07:37:33;23.33;;;18.33;;
36585;SDS011;22591;48.314;11.562;2024-01-07T07:39:58;21.73;;;17.50;;
36585;SDS011;22591;48.314;11.562;2024-01-07T07:42:24;22.42;;;16.92;;
36585;SDS011;22591;48.314;11.562;2024-01-07T07:44:49;22.77;;;16.70;;
36585;SDS011;22591;48.314;11.562;2024-01-07T07:47:15;18.45;;;15.93;;
36585;SDS011;22591;48.314;11.562;2024-01-07T07:49:40;22.27;;;17.33;;
36585;SDS011;22591;48.314;11.562;2024-01-07T07:52:08;21.45;;;16.65;;
36585;SDS011;22591;48.314;11.562;2024-01-07T07:54:36;23.02;;;16.50;;
36585;SDS011;22591;48.314;11.562;2024-01-07T07:57:02;18.83;;;15.40;;
36585;SDS011;22591;48.314;11.562;2024-01-07T07:59:28;20.92;;;14.93;;
36585;SDS011;22591;48.314;11.562;2024-01-07T08:01:54;25.77;;;16.77;;
36585;SDS011;22591;48.314;11.562;2024-01-07T08:04:19;21.75;;;16.85;;
36585;SDS011;22591;48.314;11.562;2024-01-07T08:06:45;22.85;;;16.38;;
36585;SDS011;22591;48.314;11.562;2024-01-07T08:09:10;23.30;;;16.98;;
36585;SDS011;22591;48.314;11.562;2024-01-07T08:11:36;23.02;;;17.63;;
36585;SDS011;22591;48.314;11.562;2024-01-07T08:14:01;24.20;;;17.98;;
36585;SDS011;22591;48.314;11.562;2024-01-07T08:16:27;27.13;;;18.10;;
36585;SDS011;22591;48.314;11.562;2024-01-07T08:18:53;26.63;;;18.58;;
36585;SDS011;22591;48.314;11.562;2024-01-07T08:21:21;26.95;;;19.20;;
36585;SDS011;22591;48.314;11.562;2024-01-07T08:23:48;23.65;;;18.10;;
36585;SDS011;22591;48.314;11.562;2024-01-07T08:26:20;25.98;;;19.35;;
36585;SDS011;22591;48.314;11.562;2024-01-07T08:28:46;29.73;;;20.02;;
36585;SDS011;22591;48.314;11.562;2024-01-07T08:31:12;22.80;;;18.33;;
36585;SDS011;22591;48.314;11.562;2024-01-07T08:33:37;27.85;;;20.25;;
36585;SDS011;22591;48.314;11.562;2024-01-07T08:36:03;29.27;;;18.70;;
36585;SDS011;22591;48.314;11.562;2024-01-07T08:38:29;33.63;;;22.52;;
36585;SDS011;22591;48.314;11.562;2024-01-07T08:40:55;30.20;;;21.17;;
36585;SDS011;22591;48.314;11.562;2024-01-07T08:43:20;32.28;;;21.08;;
36585;SDS011;22591;48.314;11.562;2024-01-07T08:45:46;30.98;;;21.25;;
36585;SDS011;22591;48.314;11.562;2024-01-07T08:48:11;30.38;;;21.25;;
36585;SDS011;22591;48.314;11.562;2024-01-07T08:50:37;33.45;;;21.90;;
36585;SDS011;22591;48.314;11.562;2024-01-07T08:53:03;26.95;;;18.92;;
36585;SDS011;22591;48.314;11.562;2024-01-07T08:55:29;34.80;;;22.13;;
36585;SDS011;22591;48.314;11.562;2024-01-07T08:57:55;29.73;;;21.15;;
36585;SDS011;22591;48.314;11.562;2024-01-07T09:00:21;31.65;;;22.15;;
36585;SDS011;22591;48.314;11.562;2024-01-07T09:02:50;25.65;;;17.52;;
36585;SDS011;22591;48.314;11.562;2024-01-07T09:05:16;23.85;;;19.45;;
36585;SDS011;22591;48.314;11.562;2024-01-07T09:07:42;29.65;;;20.10;;
36585;SDS011;22591;48.314;11.562;2024-01-07T09:10:08;33.65;;;19.73;;
36585;SDS011;22591;48.314;11.562;2024-01-07T09:12:35;23.10;;;17.15;;
36585;SDS011;22591;48.314;11.562;2024-01-07T09:15:05;23.55;;;18.33;;
36585;SDS011;22591;48.314;11.562;2024-01-07T09:17:35;30.10;;;20.52;;
36585;SDS011;22591;48.314;11.562;2024-01-07T09:20:02;26.75;;;19.23;;
36585;SDS011;22591;48.314;11.562;2024-01-07T09:22:30;26.38;;;18.45;;
36585;SDS011;22591;48.314;11.562;2024-01-07T09:24:56;26.92;;;18.05;;
36585;SDS011;22591;48.314;11.562;2024-01-07T09:27:21;28.23;;;18.63;;
36585;SDS011;22591;48.314;11.562;2024-01-07T09:29:47;28.63;;;19.02;;
36585;SDS011;22591;48.314;11.562;2024-01-07T09:32:13;30.95;;;20.65;;
36585;SDS011;22591;48.314;11.562;2024-01-07T09:34:38;30.73;;;20.55;;
36585;SDS011;22591;48.314;11.562;2024-01-07T09:37:04;30.67;;;20.63;;
36585;SDS011;22591;48.314;11.562;2024-01-07T09:39:29;33.70;;;21.75;;
36585;SDS011;22591;48.314;11.562;2024-01-07T09:41:55;31.10;;;21.02;;
36585;SDS011;22591;48.314;11.562;2024-01-07T09:44:20;31.85;;;21.17;;
36585;SDS011;22591;48.314;11.562;2024-01-07T09:46:46;26.70;;;19.08;;
36585;SDS011;22591;48.314;11.562;2024-01-07T09:49:16;31.20;;;19.92;;
36585;SDS011;22591;48.314;11.562;2024-01-07T09:51:42;27.17;;;19.92;;
36585;SDS011;22591;48.314;11.562;2024-01-07T09:54:10;32.38;;;19.67;;
36585;SDS011;22591;48.314;11.562;2024-01-07T09:56:39;31.27;;;19.45;;
36585;SDS011;22591;48.314;11.562;2024-01-07T09:59:13;30.20;;;18.48;;
36585;SDS011;22591;48.314;11.562;2024-01-07T10:01:39;29.17;;;19.30;;
36585;SDS011;22591;48.314;11.562;2024-01-07T10:04:05;24.80;;;17.17;;
36585;SDS011;22591;48.314;11.562;2024-01-07T10:06:31;30.83;;;20.08;;
36585;SDS011;22591;48.314;11.562;2024-01-07T10:08:57;31.48;;;20.73;;
36585;SDS011;22591;48.314;11.562;2024-01-07T10:11:24;26.73;;;18.75;;
36585;SDS011;22591;48.314;11.562;2024-01-07T10:13:49;34.15;;;21.50;;
36585;SDS011;22591;48.314;11.562;2024-01-07T10:16:17;33.35;;;20.70;;
36585;SDS011;22591;48.314;11.562;2024-01-07T10:18:43;23.90;;;17.77;;
36585;SDS011;22591;48.314;11.562;2024-01-07T10:21:09;28.00;;;19.67;;
36585;SDS011;22591;48.314;11.562;2024-01-07T10:23:34;31.90;;;21.83;;
36585;SDS011;22591;48.314;11.562;2024-01-07T10:26:00;34.92;;;20.55;;
36585;SDS011;22591;48.314;11.562;2024-01-07T10:28:27;27.50;;;18.73;;
36585;SDS011;22591;48.314;11.562;2024-01-07T10:30:53;33.97;;;20.45;;
36585;SDS011;22591;48.314;11.562;2024-01-07T10:33:18;36.50;;;21.35;;
36585;SDS011;22591;48.314;11.562;2024-01-07T10:35:47;32.65;;;20.58;;
36585;SDS011;22591;48.314;11.562;2024-01-07T10:38:18;27.17;;;19.00;;
36585;SDS011;22591;48.314;11.562;2024-01-07T10:40:43;35.75;;;21.73;;
36585;SDS011;22591;48.314;11.562;2024-01-07T10:43:12;38.47;;;21.17;;
36585;SDS011;22591;48.314;11.562;2024-01-07T10:45:41;27.45;;;20.08;;
36585;SDS011;22591;48.314;11.562;2024-01-07T10:48:09;24.98;;;17.90;;
36585;SDS011;22591;48.314;11.562;2024-01-07T10:50:37;22.67;;;17.00;;
36585;SDS011;22591;48.314;11.562;2024-01-07T10:53:04;20.65;;;15.68;;
36585;SDS011;22591;48.314;11.562;2024-01-07T10:55:33;23.55;;;17.55;;
36585;SDS011;22591;48.314;11.562;2024-01-07T10:58:01;18.75;;;14.98;;
36585;SDS011;22591;48.314;11.562;2024-01-07T11:00:28;15.98;;;13.57;;
36585;SDS011;22591;48.314;11.562;2024-01-07T11:03:02;19.77;;;13.35;;
36585;SDS011;22591;48.314;11.562;2024-01-07T11:05:40;15.02;;;13.45;;
36585;SDS011;22591;48.314;11.562;2024-01-07T11:11:16;15.68;;;13.60;;
36585;SDS011;22591;48.314;11.562;2024-01-07T11:13:46;16.88;;;15.07;;
36585;SDS011;22591;48.314;11.562;2024-01-07T11:16:11;17.48;;;14.13;;
36585;SDS011;22591;48.314;11.562;2024-01-07T11:18:38;17.90;;;15.75;;
36585;SDS011;22591;48.314;11.562;2024-01-07T11:21:04;19.95;;;16.90;;
36585;SDS011;22591;48.314;11.562;2024-01-07T11:23:34;17.13;;;15.20;;
36585;SDS011;22591;48.314;11.562;2024-01-07T11:26:05;21.90;;;17.98;;
36585;SDS011;22591;48.314;11.562;2024-01-07T11:34:08;20.27;;;17.17;;
36585;SDS011;22591;48.314;11.562;2024-01-07T11:36:36;23.50;;;19.42;;
36585;SDS011;22591;48.314;11.562;2024-01-07T11:39:02;25.30;;;19.60;;
36585;SDS011;22591;48.314;11.562;2024-01-07T11:41:31;22.27;;;17.70;;
36585;SDS011;22591;48.314;11.562;2024-01-07T11:43:58;27.67;;;20.50;;
36585;SDS011;22591;48.314;11.562;2024-01-07T11:46:25;24.77;;;19.33;;
36585;SDS011;22591;48.314;11.562;2024-01-07T11:48:53;22.48;;;17.88;;
36585;SDS011;22591;48.314;11.562;2024-01-07T11:51:24;24.92;;;19.08;;
36585;SDS011;22591;48.314;11.562;2024-01-07T11:53:53;23.90;;;18.90;;
36585;SDS011;22591;48.314;11.562;2024-01-07T11:56:19;27.55;;;21.58;;
36585;SDS011;22591;48.314;11.562;2024-01-07T11:58:44;24.05;;;19.13;;
36585;SDS011;22591;48.314;11.562;2024-01-07T12:01:10;28.20;;;20.15;;
36585;SDS011;22591;48.314;11.562;2024-01-07T12:03:36;26.10;;;18.38;;
36585;SDS011;22591;48.314;11.562;2024-01-07T12:06:02;22.33;;;17.30;;
36585;SDS011;22591;48.314;11.562;2024-01-07T12:08:29;23.15;;;17.38;;
36585;SDS011;22591;48.314;11.562;2024-01-07T12:10:55;16.85;;;14.85;;
36585;SDS011;22591;48.314;11.562;2024-01-07T12:13:21;22.67;;;17.85;;
36585;SDS011;22591;48.314;11.562;2024-01-07T12:15:47;20.92;;;16.75;;
36585;SDS011;22591;48.314;11.562;2024-01-07T12:18:13;17.92;;;13.52;;
36585;SDS011;22591;48.314;11.562;2024-01-07T12:20:40;19.52;;;16.52;;
36585;SDS011;22591;48.314;11.562;2024-01-07T12:23:06;19.88;;;15.43;;
36585;SDS011;22591;48.314;11.562;2024-01-07T12:25:35;20.55;;;16.60;;
36585;SDS011;22591;48.314;11.562;2024-01-07T12:28:01;15.75;;;14.15;;
36585;SDS011;22591;48.314;11.562;2024-01-07T12:30:31;16.83;;;14.57;;
36585;SDS011;22591;48.314;11.562;2024-01-07T12:32:56;18.05;;;16.15;;
36585;SDS011;22591;48.314;11.562;2024-01-07T12:35:24;16.48;;;13.43;;
36585;SDS011;22591;48.314;11.562;2024-01-07T12:37:51;17.42;;;13.05;;
36585;SDS011;22591;48.314;11.562;2024-01-07T12:40:17;14.65;;;12.73;;
36585;SDS011;22591;48.314;11.562;2024-01-07T12:42:44;16.15;;;14.45;;
36585;SDS011;22591;48.314;11.562;2024-01-07T12:45:11;15.05;;;13.52;;
36585;SDS011;22591;48.314;11.562;2024-01-07T12:47:38;14.35;;;12.88;;
36585;SDS011;22591;48.314;11.562;2024-01-07T12:50:05;13.82;;;12.32;;
36585;SDS011;22591;48.314;11.562;2024-01-07T12:52:33;14.13;;;12.70;;
36585;SDS011;22591;48.314;11.562;2024-01-07T12:54:58;16.20;;;13.55;;
36585;SDS011;22591;48.314;11.562;2024-01-07T12:57:24;17.20;;;13.95;;
36585;SDS011;22591;48.314;11.562;2024-01-07T12:59:49;19.00;;;15.75;;
36585;SDS011;22591;48.314;11.562;2024-01-07T13:02:15;20.15;;;16.00;;
36585;SDS011;22591;48.314;11.562;2024-01-07T13:04:41;15.75;;;14.30;;
36585;SDS011;22591;48.314;11.562;2024-01-07T13:07:06;19.15;;;16.33;;
36585;SDS011;22591;48.314;11.562;2024-01-07T13:09:32;21.05;;;18.75;;
36585;SDS011;22591;48.314;11.562;2024-01-07T13:11:57;19.23;;;15.68;;
36585;SDS011;22591;48.314;11.562;2024-01-07T13:14:23;25.58;;;18.85;;
36585;SDS011;22591;48.314;11.562;2024-01-07T13:16:48;29.10;;;19.30;;
36585;SDS011;22591;48.314;11.562;2024-01-07T13:19:14;21.20;;;16.88;;
36585;SDS011;22591;48.314;11.562;2024-01-07T13:21:40;17.67;;;15.40;;
36585;SDS011;22591;48.314;11.562;2024-01-07T13:24:05;19.92;;;16.42;;
36585;SDS011;22591;48.314;11.562;2024-01-07T13:26:31;20.60;;;18.08;;
36585;SDS011;22591;48.314;11.562;2024-01-07T13:28:56;25.40;;;19.58;;
36585;SDS011;22591;48.314;11.562;2024-01-07T13:31:22;21.55;;;18.63;;
36585;SDS011;22591;48.314;11.562;2024-01-07T13:33:48;19.20;;;16.33;;
36585;SDS011;22591;48.314;11.562;2024-01-07T13:36:14;16.00;;;14.30;;
36585;SDS011;22591;48.314;11.562;2024-01-07T13:38:39;16.50;;;14.50;;
36585;SDS011;22591;48.314;11.562;2024-01-07T13:41:06;17.95;;;15.05;;
36585;SDS011;22591;48.314;11.562;2024-01-07T13:43:35;18.83;;;16.50;;
36585;SDS011;22591;48.314;11.562;2024-01-07T13:46:02;21.92;;;16.75;;
36585;SDS011;22591;48.314;11.562;2024-01-07T13:48:28;14.88;;;12.68;;
36585;SDS011;22591;48.314;11.562;2024-01-07T13:50:54;16.35;;;14.25;;
36585;SDS011;22591;48.314;11.562;2024-01-07T13:53:20;15.00;;;13.48;;
36585;SDS011;22591;48.314;11.562;2024-01-07T13:55:46;16.08;;;13.93;;
36585;SDS011;22591;48.314;11.562;2024-01-07T13:58:11;17.83;;;14.52;;
36585;SDS011;22591;48.314;11.562;2024-01-07T14:00:37;17.08;;;15.27;;
36585;SDS011;22591;48.314;11.562;2024-01-07T14:03:03;13.70;;;12.30;;
36585;SDS011;22591;48.314;11.562;2024-01-07T14:05:29;15.95;;;13.55;;
36585;SDS011;22591;48.314;11.562;2024-01-07T14:07:55;13.75;;;12.35;;
36585;SDS011;22591;48.314;11.562;2024-01-07T14:10:20;13.95;;;12.60;;
36585;SDS011;22591;48.314;11.562;2024-01-07T14:12:46;15.93;;;14.25;;